Aviation Digital Data Service (ADDS)

Output produced by TAFs form (2023 UTC 20 July 2017)
found at http://www.aviationweather.gov/adds/tafs/
 
METAR text: UTTT 202000Z 07006KT 4000 FU NSC 22/11 Q1006 R08R/CLRD70 NOSIG
Conditions at: UTTT (TASKENT/YUZNI , UZ) observed 2000 UTC 20 July 2017
Temperature: 22.0°C (72°F)
Dewpoint: 11.0°C (52°F) [RH = 50%]
Pressure (altimeter): 29.70 inches Hg (1006.0 mb)
Winds: from the ENE (70 degrees) at 7 MPH (6 knots; 3.1 m/s)
Visibility: 2.49 miles (4.01 km)
Ceiling: at least 12,000 feet AGL
Clouds: sky clear below 12,000 feet AGL
Weather: FU  (smoke)

Forecast for: UTTT (TASKENT/YUZNI , UZ)
Text: TAF UTTT 201700Z 2018/2118 04010KT 7000 NSC TX36/2110Z
Forecast period: 1800 UTC 20 July 2017 to 1800 UTC 21 July 2017
Forecast type: FROM: standard forecast or significant change
Winds: from the NE (40 degrees) at 12 MPH (10 knots; 5.2 m/s)
Visibility: 4 miles (7 km)
Clouds: not forecast
Weather: no significant weather forecast for this period